createdAt,value
2022-11-28T00:01:22.190Z,100504.53
2022-11-28T00:03:48.881Z,100499.53
2022-11-28T00:06:15.910Z,100490.81
2022-11-28T00:08:42.596Z,100489.91
2022-11-28T00:11:11.602Z,100476.69
2022-11-28T00:13:38.434Z,100480.66
2022-11-28T00:16:07.360Z,100482.44
2022-11-28T00:18:34.326Z,100487.25
2022-11-28T00:21:02.760Z,100482.16
2022-11-28T00:23:30.269Z,100488.72
2022-11-28T00:26:01.919Z,100482.16
2022-11-28T00:28:28.635Z,100477.47
2022-11-28T00:30:55.347Z,100457.59
2022-11-28T00:33:22.452Z,100458.41
2022-11-28T00:35:49.145Z,100458.38
2022-11-28T00:38:15.800Z,100453.41
2022-11-28T00:40:42.395Z,100457.28
2022-11-28T00:43:08.966Z,100454.81
2022-11-28T00:45:35.676Z,100447.06
2022-11-28T00:48:02.247Z,100440.50
2022-11-28T00:50:28.785Z,100447.84
2022-11-28T00:52:55.264Z,100458.41
2022-11-28T00:55:21.746Z,100444.63
2022-11-28T00:57:48.269Z,100449.75
2022-11-28T01:00:15.364Z,100452.88
2022-11-28T01:02:41.927Z,100448.50
2022-11-28T01:05:09.164Z,100460.72
2022-11-28T01:07:35.742Z,100453.88
2022-11-28T01:10:02.293Z,100458.53
2022-11-28T01:12:28.801Z,100461.88
2022-11-28T01:14:57.574Z,100462.50
2022-11-28T01:17:24.132Z,100464.22
2022-11-28T01:19:50.621Z,100458.97
2022-11-28T01:22:17.119Z,100457.13
2022-11-28T01:24:43.910Z,100446.97
2022-11-28T01:27:10.548Z,100446.63
2022-11-28T01:29:37.021Z,100446.22
2022-11-28T01:32:03.659Z,100454.66
2022-11-28T01:34:30.160Z,100446.00
2022-11-28T01:36:56.723Z,100442.19
2022-11-28T01:39:23.261Z,100440.63
2022-11-28T01:41:49.884Z,100435.78
2022-11-28T01:44:16.337Z,100427.44
2022-11-28T01:46:43.695Z,100424.94
2022-11-28T01:49:25.428Z,100415.31
2022-11-28T01:51:59.573Z,100422.00
2022-11-28T01:54:27.001Z,100402.94
2022-11-28T01:56:58.981Z,100399.69
2022-11-28T01:59:28.529Z,100393.38
2022-11-28T02:01:55.063Z,100387.84
2022-11-28T02:04:22.506Z,100382.75
2022-11-28T02:06:49.019Z,100387.09
2022-11-28T02:09:16.329Z,100384.91
2022-11-28T02:12:07.181Z,100382.97
2022-11-28T02:15:18.690Z,100387.16
2022-11-28T02:18:09.458Z,100373.59
2022-11-28T02:21:05.369Z,100376.94
2022-11-28T02:24:18.999Z,100367.72
2022-11-28T02:27:22.919Z,100371.78
2022-11-28T02:30:17.179Z,100369.06
2022-11-28T02:33:14.421Z,100372.84
2022-11-28T02:35:59.078Z,100371.72
2022-11-28T02:38:57.714Z,100372.34
2022-11-28T02:41:52.088Z,100367.38
2022-11-28T02:44:23.573Z,100362.78
2022-11-28T02:46:59.654Z,100362.38
2022-11-28T02:49:47.040Z,100360.94
2022-11-28T02:52:18.739Z,100353.41
2022-11-28T02:54:47.083Z,100361.69
2022-11-28T02:57:13.531Z,100357.34
2022-11-28T02:59:42.981Z,100358.16
2022-11-28T03:02:24.721Z,100358.16
2022-11-28T03:05:08.317Z,100358.34
2022-11-28T03:07:43.741Z,100360.59
2022-11-28T03:10:22.427Z,100357.88
2022-11-28T03:13:06.973Z,100344.66
2022-11-28T03:15:59.785Z,100347.69
2022-11-28T03:18:34.031Z,100351.06
2022-11-28T03:21:06.275Z,100346.66
2022-11-28T03:23:52.488Z,100349.53
2022-11-28T03:26:29.716Z,100350.94
2022-11-28T03:29:26.850Z,100327.31
2022-11-28T03:32:17.364Z,100337.66
2022-11-28T03:34:47.403Z,100333.34
2022-11-28T03:37:22.084Z,100326.25
2022-11-28T03:39:53.942Z,100333.44
2022-11-28T03:42:28.263Z,100320.16
2022-11-28T03:45:08.713Z,100319.69
2022-11-28T03:47:40.450Z,100311.47
2022-11-28T03:50:13.027Z,100324.78
2022-11-28T03:52:43.237Z,100319.19
2022-11-28T03:55:17.321Z,100314.28
2022-11-28T03:57:51.209Z,100315.59
2022-11-28T04:00:17.815Z,100312.28
2022-11-28T04:02:49.758Z,100308.91
2022-11-28T04:05:27.811Z,100306.22
2022-11-28T04:08:00.007Z,100301.00
2022-11-28T04:10:26.540Z,100307.75
2022-11-28T04:12:56.298Z,100301.44
2022-11-28T04:15:56.679Z,100308.53
2022-11-28T04:18:45.327Z,100288.00
2022-11-28T04:21:26.867Z,100295.47
2022-11-28T04:23:56.876Z,100287.03
2022-11-28T04:26:29.123Z,100280.97
2022-11-28T04:28:58.542Z,100288.16
2022-11-28T04:31:26.453Z,100282.13
2022-11-28T04:33:58.189Z,100279.75
2022-11-28T04:36:26.741Z,100275.03
2022-11-28T04:38:57.302Z,100278.16
2022-11-28T04:41:34.972Z,100277.16
2022-11-28T04:44:14.912Z,100272.09
2022-11-28T04:46:48.319Z,100275.97
2022-11-28T04:49:14.880Z,100276.16
2022-11-28T04:52:00.542Z,100279.31
2022-11-28T04:54:43.156Z,100269.47
2022-11-28T04:57:13.944Z,100272.00
2022-11-28T04:59:42.202Z,100270.69
2022-11-28T05:02:10.273Z,100264.53
2022-11-28T05:04:37.337Z,100262.31
2022-11-28T05:07:05.679Z,100266.06
2022-11-28T05:09:32.315Z,100265.50
2022-11-28T05:11:58.902Z,100267.22
2022-11-28T05:14:25.717Z,100262.72
2022-11-28T05:16:52.391Z,100261.06
2022-11-28T05:19:19.131Z,100262.59
2022-11-28T05:21:45.728Z,100268.88
2022-11-28T05:24:12.481Z,100263.38
2022-11-28T05:26:39.029Z,100268.75
2022-11-28T05:29:06.082Z,100267.84
2022-11-28T05:31:32.928Z,100257.53
2022-11-28T05:33:59.464Z,100265.72
2022-11-28T05:36:25.949Z,100260.50
2022-11-28T05:38:52.474Z,100257.72
2022-11-28T05:41:23.248Z,100252.41
2022-11-28T05:43:50.295Z,100255.16
2022-11-28T05:46:17.931Z,100250.66
2022-11-28T05:48:44.519Z,100247.28
2022-11-28T05:51:11.173Z,100243.47
2022-11-28T05:53:37.906Z,100248.00
2022-11-28T05:56:16.486Z,100253.03
2022-11-28T05:58:43.765Z,100262.00
2022-11-28T06:01:17.025Z,100263.38
2022-11-28T06:03:44.335Z,100248.81
2022-11-28T06:06:20.185Z,100258.25
2022-11-28T06:08:48.254Z,100255.03
2022-11-28T06:11:16.179Z,100245.06
2022-11-28T06:13:43.873Z,100247.59
2022-11-28T06:16:12.793Z,100256.53
2022-11-28T06:18:40.470Z,100252.19
2022-11-28T06:21:09.593Z,100247.88
2022-11-28T06:23:44.904Z,100254.19
2022-11-28T06:26:14.016Z,100252.16
2022-11-28T06:28:41.474Z,100252.25
2022-11-28T06:31:19.426Z,100250.59
2022-11-28T06:33:46.611Z,100245.06
2022-11-28T06:36:15.200Z,100257.13
2022-11-28T06:38:41.999Z,100246.00
2022-11-28T06:41:11.186Z,100242.50
2022-11-28T06:43:38.534Z,100249.88
2022-11-28T06:46:05.326Z,100247.16
2022-11-28T06:48:32.480Z,100247.53
2022-11-28T06:51:06.429Z,100239.03
2022-11-28T06:53:34.259Z,100240.91
2022-11-28T06:56:13.896Z,100251.34
2022-11-28T06:58:41.498Z,100247.16
2022-11-28T07:01:12.635Z,100244.50
2022-11-28T07:03:40.166Z,100249.16
2022-11-28T07:06:07.470Z,100261.22
2022-11-28T07:08:34.774Z,100262.47
2022-11-28T07:11:14.006Z,100257.19
2022-11-28T07:13:41.641Z,100271.59
2022-11-28T07:16:12.023Z,100269.94
2022-11-28T07:18:38.614Z,100276.34
2022-11-28T07:21:05.483Z,100277.84
2022-11-28T07:23:32.049Z,100273.41
2022-11-28T07:26:00.257Z,100271.66
2022-11-28T07:28:28.439Z,100264.91
2022-11-28T07:31:00.487Z,100262.00
2022-11-28T07:33:27.157Z,100274.56
2022-11-28T07:35:53.631Z,100277.47
2022-11-28T07:38:20.120Z,100275.53
2022-11-28T07:40:46.628Z,100277.38
2022-11-28T07:43:13.167Z,100282.09
2022-11-28T07:45:59.216Z,100278.88
2022-11-28T07:48:26.523Z,100276.91
2022-11-28T07:50:53.038Z,100273.06
2022-11-28T07:53:19.634Z,100270.69
2022-11-28T07:55:46.329Z,100279.28
2022-11-28T07:58:12.903Z,100275.16
2022-11-28T08:00:39.487Z,100288.50
2022-11-28T08:03:06.173Z,100274.25
2022-11-28T08:05:33.674Z,100278.13
2022-11-28T08:08:00.293Z,100279.59
2022-11-28T08:10:26.839Z,100276.88
2022-11-28T08:12:53.421Z,100286.09
2022-11-28T08:15:20.296Z,100274.81
2022-11-28T08:17:46.948Z,100276.81
2022-11-28T08:20:13.616Z,100275.09
2022-11-28T08:22:40.463Z,100275.78
2022-11-28T08:25:07.206Z,100267.09
2022-11-28T08:27:33.921Z,100274.72
2022-11-28T08:30:00.447Z,100274.19
2022-11-28T08:32:30.037Z,100277.66
2022-11-28T08:34:56.533Z,100275.00
2022-11-28T08:37:23.023Z,100284.81
2022-11-28T08:39:49.649Z,100272.78
2022-11-28T08:42:16.153Z,100270.53
2022-11-28T08:44:42.696Z,100278.94
2022-11-28T08:47:09.263Z,100272.94
2022-11-28T08:49:39.451Z,100272.03
2022-11-28T08:52:06.400Z,100266.16
2022-11-28T08:54:33.211Z,100265.09
2022-11-28T08:57:01.319Z,100265.41
2022-11-28T08:59:28.239Z,100267.56
2022-11-28T09:01:55.211Z,100260.81
2022-11-28T09:04:26.378Z,100266.44
2022-11-28T09:06:53.304Z,100261.13
2022-11-28T09:09:19.880Z,100263.13
2022-11-28T09:11:46.994Z,100254.66
2022-11-28T09:14:13.525Z,100265.00
2022-11-28T09:16:40.827Z,100266.56
2022-11-28T09:19:09.138Z,100275.69
2022-11-28T09:21:36.538Z,100281.06
2022-11-28T09:24:03.671Z,100285.34
2022-11-28T09:26:30.495Z,100285.47
2022-11-28T09:28:57.040Z,100276.84
2022-11-28T09:31:23.791Z,100281.94
2022-11-28T09:33:50.716Z,100281.72
2022-11-28T09:36:20.991Z,100279.78
2022-11-28T09:38:47.834Z,100276.56
2022-11-28T09:41:41.356Z,100280.81
2022-11-28T09:44:22.382Z,100284.03
2022-11-28T09:46:53.914Z,100276.44
2022-11-28T09:49:58.091Z,100273.94
2022-11-28T09:52:24.582Z,100268.75
2022-11-28T09:55:05.022Z,100268.06
2022-11-28T09:57:40.250Z,100251.81
2022-11-28T10:00:17.163Z,100253.81
2022-11-28T10:03:06.896Z,100245.66
2022-11-28T10:05:45.380Z,100251.31
2022-11-28T10:08:46.848Z,100261.63
2022-11-28T10:11:31.952Z,100258.91
2022-11-28T10:14:23.376Z,100247.06
2022-11-28T10:17:21.171Z,100247.38
2022-11-28T10:20:01.192Z,100250.84
2022-11-28T10:22:37.309Z,100240.97
2022-11-28T10:25:19.015Z,100242.75
2022-11-28T10:27:46.900Z,100244.34
2022-11-28T10:30:36.249Z,100243.06
2022-11-28T10:33:24.124Z,100243.91
2022-11-28T10:35:59.081Z,100241.50
2022-11-28T10:38:27.802Z,100244.63
2022-11-28T10:41:16.335Z,100244.16
2022-11-28T10:44:02.793Z,100238.44
2022-11-28T10:46:53.950Z,100237.81
2022-11-28T10:49:47.094Z,100242.47
2022-11-28T10:52:32.136Z,100234.34
2022-11-28T10:55:08.143Z,100240.91
2022-11-28T10:58:13.633Z,100239.97
2022-11-28T11:00:42.254Z,100233.63
2022-11-28T11:03:13.511Z,100237.59
2022-11-28T11:05:40.173Z,100231.03
2022-11-28T11:08:24.679Z,100226.75
2022-11-28T11:11:01.532Z,100229.44
2022-11-28T11:13:31.319Z,100212.66
2022-11-28T11:16:00.956Z,100217.88
2022-11-28T11:18:31.348Z,100216.22
2022-11-28T11:21:10.263Z,100222.09
2022-11-28T11:23:38.421Z,100212.13
2022-11-28T11:26:10.184Z,100205.91
2022-11-28T11:28:42.165Z,100217.41
2022-11-28T11:31:32.756Z,100217.84
2022-11-28T11:34:13.082Z,100213.34
2022-11-28T11:36:39.614Z,100206.28
2022-11-28T11:39:15.200Z,100211.63
2022-11-28T11:41:47.804Z,100208.91
2022-11-28T11:44:14.273Z,100204.72
2022-11-28T11:47:06.006Z,100206.09
2022-11-28T11:49:45.083Z,100200.53
2022-11-28T11:52:12.797Z,100214.00
2022-11-28T11:55:03.214Z,100199.72
2022-11-28T11:57:37.890Z,100204.38
2022-11-28T12:00:15.118Z,100207.75
2022-11-28T12:02:58.339Z,100208.91
2022-11-28T12:05:41.817Z,100214.69
2022-11-28T12:08:37.989Z,100206.97
2022-11-28T12:11:15.419Z,100211.06
2022-11-28T12:13:42.623Z,100211.78
2022-11-28T12:16:28.570Z,100212.72
2022-11-28T12:19:41.407Z,100212.66
2022-11-28T12:22:16.939Z,100213.94
2022-11-28T12:25:22.482Z,100210.16
2022-11-28T12:28:12.351Z,100208.41
2022-11-28T12:31:06.946Z,100204.59
2022-11-28T12:34:00.909Z,100200.28
2022-11-28T12:36:37.245Z,100198.16
2022-11-28T12:39:22.487Z,100196.91
2022-11-28T12:42:13.827Z,100195.25
2022-11-28T12:45:04.853Z,100192.88
2022-11-28T12:48:14.637Z,100197.09
2022-11-28T12:50:49.616Z,100189.94
2022-11-28T12:53:43.155Z,100187.22
2022-11-28T12:56:40.072Z,100184.31
2022-11-28T12:59:34.868Z,100182.00
2022-11-28T13:02:27.632Z,100187.34
2022-11-28T13:05:53.250Z,100186.69
2022-11-28T13:08:48.804Z,100183.25
2022-11-28T13:12:00.332Z,100185.50
2022-11-28T13:14:38.025Z,100178.56
2022-11-28T13:17:25.750Z,100173.09
2022-11-28T13:20:03.333Z,100176.34
2022-11-28T13:22:36.910Z,100177.53
2022-11-28T13:25:38.296Z,100182.44
2022-11-28T13:28:14.233Z,100178.34
2022-11-28T13:30:59.339Z,100189.09
2022-11-28T13:33:28.904Z,100194.03
2022-11-28T13:35:58.513Z,100191.78
2022-11-28T13:39:11.190Z,100196.34
2022-11-28T13:44:42.499Z,100181.72
2022-11-28T13:47:14.546Z,100184.44
2022-11-28T13:49:41.044Z,100181.84
2022-11-28T13:52:32.352Z,100169.94
2022-11-28T13:54:58.974Z,100178.81
2022-11-28T13:57:36.525Z,100172.78
2022-11-28T14:00:19.321Z,100179.44
2022-11-28T14:02:53.233Z,100173.16
2022-11-28T14:05:28.071Z,100176.19
2022-11-28T14:07:56.405Z,100166.63
2022-11-28T14:10:39.934Z,100167.47
2022-11-28T14:13:34.770Z,100173.09
2022-11-28T14:16:04.773Z,100179.44
2022-11-28T14:19:10.068Z,100190.19
2022-11-28T14:21:57.921Z,100178.41
2022-11-28T14:24:47.951Z,100184.22
2022-11-28T14:27:23.484Z,100183.50
2022-11-28T14:29:54.015Z,100185.94
2022-11-28T14:32:42.051Z,100186.44
2022-11-28T14:35:52.536Z,100174.63
2022-11-28T14:38:31.390Z,100186.91
2022-11-28T14:41:06.904Z,100190.03
2022-11-28T14:43:46.123Z,100185.09
2022-11-28T14:46:15.598Z,100185.63
2022-11-28T14:49:02.552Z,100186.72
2022-11-28T14:51:49.570Z,100183.69
2022-11-28T14:54:31.656Z,100192.59
2022-11-28T14:57:00.181Z,100195.16
2022-11-28T14:59:34.601Z,100193.69
2022-11-28T15:02:10.497Z,100201.19
2022-11-28T15:04:40.096Z,100188.47
2022-11-28T15:07:32.703Z,100194.19
2022-11-28T15:10:15.290Z,100198.03
2022-11-28T15:13:12.508Z,100202.75
2022-11-28T15:15:48.433Z,100198.56
2022-11-28T15:18:17.772Z,100191.88
2022-11-28T15:20:51.219Z,100188.16
2022-11-28T15:23:31.639Z,100194.34
2022-11-28T15:26:00.207Z,100196.84
2022-11-28T15:28:28.826Z,100196.78
2022-11-28T15:30:57.238Z,100201.19
2022-11-28T15:33:25.872Z,100206.06
2022-11-28T15:35:55.450Z,100201.94
2022-11-28T15:38:22.219Z,100205.78
2022-11-28T15:40:51.563Z,100205.22
2022-11-28T15:43:18.848Z,100203.59
2022-11-28T15:45:54.055Z,100202.88
2022-11-28T15:48:47.906Z,100209.66
2022-11-28T15:51:29.855Z,100207.41
2022-11-28T15:53:56.860Z,100205.97
2022-11-28T15:56:23.558Z,100203.56
2022-11-28T15:58:51.629Z,100209.31
2022-11-28T16:01:22.583Z,100204.28
2022-11-28T16:04:27.595Z,100205.47
2022-11-28T16:06:56.883Z,100213.00
2022-11-28T16:09:35.038Z,100210.25
2022-11-28T16:12:04.144Z,100209.50
2022-11-28T16:14:38.330Z,100213.47
2022-11-28T16:17:14.703Z,100207.19
2022-11-28T16:19:44.303Z,100210.94
2022-11-28T16:22:16.336Z,100210.50
2022-11-28T16:24:48.770Z,100205.38
2022-11-28T16:27:35.323Z,100210.00
2022-11-28T16:30:43.492Z,100208.13
2022-11-28T16:33:41.037Z,100213.91
2022-11-28T16:36:31.026Z,100215.63
2022-11-28T16:39:23.797Z,100215.19
2022-11-28T16:42:05.123Z,100219.81
2022-11-28T16:44:33.541Z,100222.44
2022-11-28T16:47:00.838Z,100221.03
2022-11-28T16:49:39.269Z,100220.41
2022-11-28T16:52:24.192Z,100223.31
2022-11-28T16:54:55.399Z,100221.69
2022-11-28T16:57:22.802Z,100225.03
2022-11-28T16:59:53.479Z,100224.06
2022-11-28T17:02:23.172Z,100224.09
2022-11-28T17:04:51.602Z,100229.78
2022-11-28T17:07:20.539Z,100225.63
2022-11-28T17:09:48.769Z,100228.97
2022-11-28T17:12:28.294Z,100228.19
2022-11-28T17:14:55.781Z,100221.09
2022-11-28T17:17:23.490Z,100222.22
2022-11-28T17:19:50.401Z,100231.25
2022-11-28T17:22:20.357Z,100221.03
2022-11-28T17:24:48.568Z,100225.88
2022-11-28T17:27:15.910Z,100230.75
2022-11-28T17:29:42.983Z,100233.66
2022-11-28T17:32:13.966Z,100234.94
2022-11-28T17:34:42.231Z,100237.81
2022-11-28T17:37:09.956Z,100236.38
2022-11-28T17:39:36.724Z,100238.94
2022-11-28T17:42:04.233Z,100241.50
2022-11-28T17:44:36.243Z,100248.59
2022-11-28T17:47:03.649Z,100242.81
2022-11-28T17:49:30.915Z,100239.88
2022-11-28T17:51:57.886Z,100241.91
2022-11-28T17:54:26.221Z,100238.56
2022-11-28T17:56:54.105Z,100231.75
2022-11-28T17:59:23.243Z,100232.53
2022-11-28T18:01:50.276Z,100236.81
2022-11-28T18:04:16.856Z,100228.50
2022-11-28T18:06:45.646Z,100231.03
2022-11-28T18:09:13.477Z,100229.25
2022-11-28T18:11:46.223Z,100232.22
2022-11-28T18:14:13.142Z,100232.81
2022-11-28T18:16:40.968Z,100240.25
2022-11-28T18:19:07.569Z,100239.81
2022-11-28T18:21:34.220Z,100232.31
2022-11-28T18:24:00.815Z,100238.09
2022-11-28T18:26:27.578Z,100236.44
2022-11-28T18:28:54.858Z,100238.75
2022-11-28T18:31:26.936Z,100235.75
2022-11-28T18:34:01.429Z,100235.09
2022-11-28T18:36:29.781Z,100239.19
2022-11-28T18:38:58.564Z,100239.69
2022-11-28T18:41:25.964Z,100246.44
2022-11-28T18:44:00.741Z,100242.91
2022-11-28T18:46:29.090Z,100246.94
2022-11-28T18:48:55.928Z,100248.31
2022-11-28T18:51:25.045Z,100243.91
2022-11-28T18:53:52.997Z,100245.66
2022-11-28T18:56:19.852Z,100251.03
2022-11-28T18:58:48.939Z,100254.25
2022-11-28T19:01:18.756Z,100256.38
2022-11-28T19:03:55.224Z,100249.72
2022-11-28T19:06:22.167Z,100259.78
2022-11-28T19:08:52.853Z,100257.81
2022-11-28T19:11:19.492Z,100252.63
2022-11-28T19:13:47.728Z,100255.22
2022-11-28T19:16:18.203Z,100255.88
2022-11-28T19:18:45.301Z,100257.97
2022-11-28T19:21:14.958Z,100260.47
2022-11-28T19:23:41.645Z,100251.19
2022-11-28T19:26:10.941Z,100254.72
2022-11-28T19:28:39.358Z,100251.59
2022-11-28T19:31:14.951Z,100261.50
2022-11-28T19:33:43.068Z,100253.34
2022-11-28T19:36:12.355Z,100250.84
2022-11-28T19:38:39.616Z,100252.31
2022-11-28T19:41:14.551Z,100241.25
2022-11-28T19:43:41.499Z,100254.06
2022-11-28T19:46:09.715Z,100251.59
2022-11-28T19:48:37.635Z,100262.34
2022-11-28T19:51:04.532Z,100258.94
2022-11-28T19:53:32.163Z,100254.22
2022-11-28T19:56:03.280Z,100258.47
2022-11-28T19:58:31.443Z,100261.22
2022-11-28T20:01:06.495Z,100252.44
2022-11-28T20:03:34.431Z,100249.72
2022-11-28T20:06:01.122Z,100261.72
2022-11-28T20:08:28.651Z,100267.78
2022-11-28T20:10:55.162Z,100261.38
2022-11-28T20:13:21.716Z,100264.66
2022-11-28T20:15:48.331Z,100278.56
2022-11-28T20:18:14.946Z,100269.88
2022-11-28T20:20:41.508Z,100274.94
2022-11-28T20:23:08.133Z,100274.00
2022-11-28T20:25:34.695Z,100278.66
2022-11-28T20:28:01.320Z,100274.97
2022-11-28T20:30:28.233Z,100285.63
2022-11-28T20:32:55.366Z,100279.25
2022-11-28T20:35:24.401Z,100292.50
2022-11-28T20:37:51.064Z,100285.47
2022-11-28T20:40:17.651Z,100287.81
2022-11-28T20:42:44.306Z,100287.69
2022-11-28T20:45:11.184Z,100286.00
2022-11-28T20:47:37.773Z,100288.53
2022-11-28T20:50:06.671Z,100295.31
2022-11-28T20:52:33.215Z,100290.06
2022-11-28T20:54:59.776Z,100292.75
2022-11-28T20:57:27.112Z,100292.75
2022-11-28T20:59:56.693Z,100293.44
2022-11-28T21:02:23.796Z,100292.97
2022-11-28T21:04:50.435Z,100293.44
2022-11-28T21:07:18.381Z,100291.88
2022-11-28T21:09:45.256Z,100299.44
2022-11-28T21:12:14.433Z,100298.66
2022-11-28T21:14:43.221Z,100299.94
2022-11-28T21:17:10.005Z,100296.66
2022-11-28T21:19:36.637Z,100298.03
2022-11-28T21:22:03.374Z,100297.53
2022-11-28T21:24:30.000Z,100294.69
2022-11-28T21:26:56.538Z,100289.97
2022-11-28T21:29:24.646Z,100303.13
2022-11-28T21:31:52.219Z,100300.03
2022-11-28T21:34:19.326Z,100297.19
2022-11-28T21:36:46.297Z,100305.13
2022-11-28T21:39:15.099Z,100302.59
2022-11-28T21:41:41.892Z,100296.09
2022-11-28T21:44:08.665Z,100301.03
2022-11-28T21:46:35.178Z,100302.22
2022-11-28T21:49:01.833Z,100297.41
2022-11-28T21:51:28.705Z,100300.16
2022-11-28T21:53:57.374Z,100287.56
2022-11-28T21:56:24.390Z,100288.09
2022-11-28T21:58:51.329Z,100289.34
2022-11-28T22:01:18.153Z,100304.88
2022-11-28T22:03:44.850Z,100293.09
2022-11-28T22:06:14.692Z,100295.97
2022-11-28T22:08:41.328Z,100288.47
2022-11-28T22:11:13.084Z,100290.34
2022-11-28T22:13:42.086Z,100298.06
2022-11-28T22:16:11.380Z,100299.75
2022-11-28T22:18:38.703Z,100302.03
2022-11-28T22:21:28.733Z,100299.16
2022-11-28T22:23:53.420Z,100301.28
2022-11-28T22:26:20.463Z,100306.00
2022-11-28T22:28:53.220Z,100306.97
2022-11-28T22:31:20.482Z,100309.44
2022-11-28T22:33:49.454Z,100303.28
2022-11-28T22:36:20.921Z,100297.88
2022-11-28T22:38:53.588Z,100303.19
2022-11-28T22:41:28.422Z,100304.91
2022-11-28T22:43:57.248Z,100308.56
2022-11-28T22:46:23.903Z,100310.75
2022-11-28T22:48:51.656Z,100312.84
2022-11-28T22:51:21.004Z,100310.47
2022-11-28T22:53:47.724Z,100315.94
2022-11-28T22:56:15.444Z,100316.50
2022-11-28T22:58:44.743Z,100318.13
2022-11-28T23:01:14.681Z,100310.75
2022-11-28T23:03:41.312Z,100317.56
2022-11-28T23:06:11.764Z,100312.44
2022-11-28T23:08:38.721Z,100323.31
2022-11-28T23:11:09.935Z,100316.66
2022-11-28T23:13:38.058Z,100317.56
2022-11-28T23:16:16.872Z,100319.66
2022-11-28T23:18:45.259Z,100321.97
2022-11-28T23:21:13.527Z,100325.09
2022-11-28T23:23:40.505Z,100321.78
2022-11-28T23:26:09.779Z,100324.19
2022-11-28T23:28:42.989Z,100326.41
2022-11-28T23:31:23.978Z,100326.06
2022-11-28T23:34:00.561Z,100325.50
2022-11-28T23:36:30.444Z,100325.63
2022-11-28T23:38:59.240Z,100319.06
2022-11-28T23:41:27.282Z,100329.44
2022-11-28T23:43:54.049Z,100315.09
2022-11-28T23:46:21.356Z,100323.31
2022-11-28T23:48:48.462Z,100318.53
2022-11-28T23:51:18.354Z,100315.81
2022-11-28T23:53:45.389Z,100317.78
2022-11-28T23:56:17.434Z,100319.78
2022-11-28T23:58:44.395Z,100321.19
